sensor_id;sensor_type;location;lat;lon;timestamp;P1;durP1;ratioP1;P2;durP2;ratioP2
505;SDS011;551;48.524;9.056;2022-08-21T00:00:39;3.93;;;3.60;;
505;SDS011;551;48.524;9.056;2022-08-21T00:03:08;4.70;;;3.20;;
505;SDS011;551;48.524;9.056;2022-08-21T00:05:36;4.90;;;4.10;;
505;SDS011;551;48.524;9.056;2022-08-21T00:08:03;7.70;;;3.53;;
505;SDS011;551;48.524;9.056;2022-08-21T00:10:29;5.37;;;3.90;;
505;SDS011;551;48.524;9.056;2022-08-21T00:12:55;4.63;;;3.90;;
505;SDS011;551;48.524;9.056;2022-08-21T00:15:29;5.57;;;4.17;;
505;SDS011;551;48.524;9.056;2022-08-21T00:17:56;3.47;;;3.17;;
505;SDS011;551;48.524;9.056;2022-08-21T00:20:22;4.63;;;4.23;;
505;SDS011;551;48.524;9.056;2022-08-21T00:22:48;7.37;;;3.93;;
505;SDS011;551;48.524;9.056;2022-08-21T00:25:15;3.50;;;3.20;;
505;SDS011;551;48.524;9.056;2022-08-21T00:27:41;4.00;;;3.70;;
505;SDS011;551;48.524;9.056;2022-08-21T00:30:08;4.87;;;4.47;;
505;SDS011;551;48.524;9.056;2022-08-21T00:32:35;3.77;;;3.37;;
505;SDS011;551;48.524;9.056;2022-08-21T00:35:02;4.20;;;3.90;;
505;SDS011;551;48.524;9.056;2022-08-21T00:37:28;4.47;;;4.07;;
505;SDS011;551;48.524;9.056;2022-08-21T00:39:54;8.10;;;4.40;;
505;SDS011;551;48.524;9.056;2022-08-21T00:42:20;5.70;;;3.90;;
505;SDS011;551;48.524;9.056;2022-08-21T00:44:48;4.13;;;3.80;;
505;SDS011;551;48.524;9.056;2022-08-21T00:47:15;7.97;;;3.70;;
505;SDS011;551;48.524;9.056;2022-08-21T00:49:41;4.50;;;4.07;;
505;SDS011;551;48.524;9.056;2022-08-21T00:52:09;6.40;;;3.77;;
505;SDS011;551;48.524;9.056;2022-08-21T00:54:35;5.60;;;4.60;;
505;SDS011;551;48.524;9.056;2022-08-21T00:57:04;4.77;;;3.80;;
505;SDS011;551;48.524;9.056;2022-08-21T00:59:32;4.53;;;4.07;;
505;SDS011;551;48.524;9.056;2022-08-21T01:01:59;6.17;;;4.33;;
505;SDS011;551;48.524;9.056;2022-08-21T01:04:24;9.10;;;4.30;;
505;SDS011;551;48.524;9.056;2022-08-21T01:06:50;5.10;;;3.73;;
505;SDS011;551;48.524;9.056;2022-08-21T01:09:17;5.60;;;4.50;;
505;SDS011;551;48.524;9.056;2022-08-21T01:11:44;4.80;;;4.33;;
505;SDS011;551;48.524;9.056;2022-08-21T01:14:11;4.17;;;3.77;;
505;SDS011;551;48.524;9.056;2022-08-21T01:16:37;4.70;;;4.30;;
505;SDS011;551;48.524;9.056;2022-08-21T01:19:03;4.67;;;4.27;;
505;SDS011;551;48.524;9.056;2022-08-21T01:21:30;4.40;;;4.00;;
505;SDS011;551;48.524;9.056;2022-08-21T01:23:56;4.70;;;4.30;;
505;SDS011;551;48.524;9.056;2022-08-21T01:26:23;5.23;;;3.57;;
505;SDS011;551;48.524;9.056;2022-08-21T01:29:00;7.20;;;4.37;;
505;SDS011;551;48.524;9.056;2022-08-21T01:31:28;10.10;;;4.20;;
505;SDS011;551;48.524;9.056;2022-08-21T01:33:55;4.73;;;4.23;;
505;SDS011;551;48.524;9.056;2022-08-21T01:36:21;4.97;;;4.43;;
505;SDS011;551;48.524;9.056;2022-08-21T01:38:48;4.37;;;3.97;;
505;SDS011;551;48.524;9.056;2022-08-21T01:41:14;4.43;;;3.57;;
505;SDS011;551;48.524;9.056;2022-08-21T01:43:41;4.87;;;4.20;;
505;SDS011;551;48.524;9.056;2022-08-21T01:46:07;6.63;;;4.47;;
505;SDS011;551;48.524;9.056;2022-08-21T01:48:33;5.07;;;4.60;;
505;SDS011;551;48.524;9.056;2022-08-21T01:50:59;5.80;;;4.40;;
505;SDS011;551;48.524;9.056;2022-08-21T01:53:25;4.77;;;4.27;;
505;SDS011;551;48.524;9.056;2022-08-21T01:55:54;5.47;;;4.60;;
505;SDS011;551;48.524;9.056;2022-08-21T01:58:21;6.60;;;4.77;;
505;SDS011;551;48.524;9.056;2022-08-21T02:00:47;5.13;;;4.73;;
505;SDS011;551;48.524;9.056;2022-08-21T02:03:14;4.53;;;4.13;;
505;SDS011;551;48.524;9.056;2022-08-21T02:05:40;6.70;;;4.93;;
505;SDS011;551;48.524;9.056;2022-08-21T02:08:06;4.50;;;4.10;;
505;SDS011;551;48.524;9.056;2022-08-21T02:10:32;4.70;;;4.30;;
505;SDS011;551;48.524;9.056;2022-08-21T02:13:01;7.20;;;4.43;;
505;SDS011;551;48.524;9.056;2022-08-21T02:15:28;8.43;;;4.53;;
505;SDS011;551;48.524;9.056;2022-08-21T02:17:55;4.47;;;4.17;;
505;SDS011;551;48.524;9.056;2022-08-21T02:20:28;5.77;;;3.80;;
505;SDS011;551;48.524;9.056;2022-08-21T02:22:54;5.53;;;4.70;;
505;SDS011;551;48.524;9.056;2022-08-21T02:25:20;4.20;;;3.90;;
505;SDS011;551;48.524;9.056;2022-08-21T02:27:47;4.50;;;4.20;;
505;SDS011;551;48.524;9.056;2022-08-21T02:30:15;7.87;;;4.80;;
505;SDS011;551;48.524;9.056;2022-08-21T02:32:41;8.30;;;4.67;;
505;SDS011;551;48.524;9.056;2022-08-21T02:35:08;5.63;;;4.50;;
505;SDS011;551;48.524;9.056;2022-08-21T02:37:34;5.87;;;5.23;;
505;SDS011;551;48.524;9.056;2022-08-21T02:40:00;4.53;;;4.13;;
505;SDS011;551;48.524;9.056;2022-08-21T02:42:26;5.57;;;4.77;;
505;SDS011;551;48.524;9.056;2022-08-21T02:44:52;7.40;;;4.37;;
505;SDS011;551;48.524;9.056;2022-08-21T02:47:18;6.23;;;4.67;;
505;SDS011;551;48.524;9.056;2022-08-21T02:49:44;7.50;;;4.47;;
505;SDS011;551;48.524;9.056;2022-08-21T02:52:10;5.33;;;4.40;;
505;SDS011;551;48.524;9.056;2022-08-21T02:54:36;5.17;;;4.37;;
505;SDS011;551;48.524;9.056;2022-08-21T02:57:02;5.43;;;4.57;;
505;SDS011;551;48.524;9.056;2022-08-21T02:59:28;5.00;;;4.47;;
505;SDS011;551;48.524;9.056;2022-08-21T03:01:54;4.80;;;4.40;;
505;SDS011;551;48.524;9.056;2022-08-21T03:04:22;9.00;;;5.10;;
505;SDS011;551;48.524;9.056;2022-08-21T03:06:48;4.63;;;4.27;;
505;SDS011;551;48.524;9.056;2022-08-21T03:09:14;6.70;;;4.20;;
505;SDS011;551;48.524;9.056;2022-08-21T03:11:39;4.53;;;3.90;;
505;SDS011;551;48.524;9.056;2022-08-21T03:14:07;7.30;;;4.30;;
505;SDS011;551;48.524;9.056;2022-08-21T03:16:33;4.80;;;4.40;;
505;SDS011;551;48.524;9.056;2022-08-21T03:18:59;4.87;;;4.47;;
505;SDS011;551;48.524;9.056;2022-08-21T03:21:25;5.10;;;4.40;;
505;SDS011;551;48.524;9.056;2022-08-21T03:23:52;6.10;;;4.70;;
505;SDS011;551;48.524;9.056;2022-08-21T03:26:19;7.10;;;4.53;;
505;SDS011;551;48.524;9.056;2022-08-21T03:28:44;7.30;;;5.00;;
505;SDS011;551;48.524;9.056;2022-08-21T03:31:10;5.63;;;5.10;;
505;SDS011;551;48.524;9.056;2022-08-21T03:33:36;7.70;;;4.33;;
505;SDS011;551;48.524;9.056;2022-08-21T03:36:04;7.27;;;4.60;;
505;SDS011;551;48.524;9.056;2022-08-21T03:38:31;7.00;;;4.23;;
505;SDS011;551;48.524;9.056;2022-08-21T03:40:58;4.70;;;4.33;;
505;SDS011;551;48.524;9.056;2022-08-21T03:43:24;6.03;;;5.30;;
505;SDS011;551;48.524;9.056;2022-08-21T03:45:51;5.00;;;3.93;;
505;SDS011;551;48.524;9.056;2022-08-21T03:48:17;4.63;;;4.23;;
505;SDS011;551;48.524;9.056;2022-08-21T03:50:43;6.57;;;4.73;;
505;SDS011;551;48.524;9.056;2022-08-21T03:53:12;9.57;;;5.23;;
505;SDS011;551;48.524;9.056;2022-08-21T03:55:41;4.83;;;4.40;;
505;SDS011;551;48.524;9.056;2022-08-21T03:58:07;7.00;;;4.63;;
505;SDS011;551;48.524;9.056;2022-08-21T04:00:34;5.27;;;4.77;;
505;SDS011;551;48.524;9.056;2022-08-21T04:03:00;4.80;;;4.37;;
505;SDS011;551;48.524;9.056;2022-08-21T04:05:25;6.13;;;5.60;;
505;SDS011;551;48.524;9.056;2022-08-21T04:07:56;4.70;;;4.30;;
505;SDS011;551;48.524;9.056;2022-08-21T04:10:23;4.67;;;4.27;;
505;SDS011;551;48.524;9.056;2022-08-21T04:12:49;6.70;;;4.37;;
505;SDS011;551;48.524;9.056;2022-08-21T04:15:15;5.73;;;5.13;;
505;SDS011;551;48.524;9.056;2022-08-21T04:17:42;7.97;;;5.10;;
505;SDS011;551;48.524;9.056;2022-08-21T04:20:08;7.37;;;4.23;;
505;SDS011;551;48.524;9.056;2022-08-21T04:22:34;5.93;;;4.67;;
505;SDS011;551;48.524;9.056;2022-08-21T04:25:00;5.70;;;4.43;;
505;SDS011;551;48.524;9.056;2022-08-21T04:27:26;10.63;;;5.60;;
505;SDS011;551;48.524;9.056;2022-08-21T04:29:51;4.80;;;4.40;;
505;SDS011;551;48.524;9.056;2022-08-21T04:32:21;5.40;;;4.03;;
505;SDS011;551;48.524;9.056;2022-08-21T04:34:47;5.40;;;4.77;;
505;SDS011;551;48.524;9.056;2022-08-21T04:37:13;4.57;;;4.17;;
505;SDS011;551;48.524;9.056;2022-08-21T04:39:40;4.83;;;4.43;;
505;SDS011;551;48.524;9.056;2022-08-21T04:42:06;4.67;;;4.00;;
505;SDS011;551;48.524;9.056;2022-08-21T04:44:33;4.97;;;4.50;;
505;SDS011;551;48.524;9.056;2022-08-21T04:46:59;5.10;;;4.30;;
505;SDS011;551;48.524;9.056;2022-08-21T04:49:25;5.70;;;4.40;;
505;SDS011;551;48.524;9.056;2022-08-21T04:51:51;6.00;;;3.90;;
505;SDS011;551;48.524;9.056;2022-08-21T04:54:19;6.13;;;4.40;;
505;SDS011;551;48.524;9.056;2022-08-21T04:56:53;4.83;;;4.17;;
505;SDS011;551;48.524;9.056;2022-08-21T04:59:21;6.70;;;4.37;;
505;SDS011;551;48.524;9.056;2022-08-21T05:01:48;4.00;;;3.70;;
505;SDS011;551;48.524;9.056;2022-08-21T05:04:16;9.47;;;4.47;;
505;SDS011;551;48.524;9.056;2022-08-21T05:06:43;4.83;;;4.13;;
505;SDS011;551;48.524;9.056;2022-08-21T05:09:12;4.80;;;4.27;;
505;SDS011;551;48.524;9.056;2022-08-21T05:11:39;7.23;;;4.37;;
505;SDS011;551;48.524;9.056;2022-08-21T05:14:06;6.03;;;4.53;;
505;SDS011;551;48.524;9.056;2022-08-21T05:16:32;4.30;;;4.00;;
505;SDS011;551;48.524;9.056;2022-08-21T05:18:58;5.00;;;4.53;;
505;SDS011;551;48.524;9.056;2022-08-21T05:21:24;3.80;;;3.40;;
505;SDS011;551;48.524;9.056;2022-08-21T05:23:50;7.77;;;3.90;;
505;SDS011;551;48.524;9.056;2022-08-21T05:26:16;4.67;;;3.23;;
505;SDS011;551;48.524;9.056;2022-08-21T05:28:42;3.10;;;2.80;;
505;SDS011;551;48.524;9.056;2022-08-21T05:31:08;3.13;;;2.93;;
505;SDS011;551;48.524;9.056;2022-08-21T05:33:34;3.57;;;3.37;;
505;SDS011;551;48.524;9.056;2022-08-21T05:36:00;3.43;;;3.23;;
505;SDS011;551;48.524;9.056;2022-08-21T05:38:26;3.40;;;3.10;;
505;SDS011;551;48.524;9.056;2022-08-21T05:40:53;3.70;;;3.30;;
505;SDS011;551;48.524;9.056;2022-08-21T05:43:19;3.40;;;3.20;;
505;SDS011;551;48.524;9.056;2022-08-21T05:45:45;3.43;;;3.13;;
505;SDS011;551;48.524;9.056;2022-08-21T05:48:19;5.83;;;3.37;;
505;SDS011;551;48.524;9.056;2022-08-21T05:50:46;3.20;;;3.00;;
505;SDS011;551;48.524;9.056;2022-08-21T05:53:12;3.40;;;2.83;;
505;SDS011;551;48.524;9.056;2022-08-21T05:55:38;3.50;;;3.20;;
505;SDS011;551;48.524;9.056;2022-08-21T05:58:05;4.13;;;3.07;;
505;SDS011;551;48.524;9.056;2022-08-21T06:00:31;3.03;;;2.80;;
505;SDS011;551;48.524;9.056;2022-08-21T06:02:58;3.00;;;2.80;;
505;SDS011;551;48.524;9.056;2022-08-21T06:05:25;3.37;;;3.17;;
505;SDS011;551;48.524;9.056;2022-08-21T06:07:51;2.90;;;2.70;;
505;SDS011;551;48.524;9.056;2022-08-21T06:10:17;3.37;;;2.67;;
505;SDS011;551;48.524;9.056;2022-08-21T06:12:43;3.60;;;3.07;;
505;SDS011;551;48.524;9.056;2022-08-21T06:15:09;4.60;;;3.47;;
505;SDS011;551;48.524;9.056;2022-08-21T06:17:35;5.67;;;3.57;;
505;SDS011;551;48.524;9.056;2022-08-21T06:20:01;3.77;;;3.37;;
505;SDS011;551;48.524;9.056;2022-08-21T06:22:27;3.40;;;3.20;;
505;SDS011;551;48.524;9.056;2022-08-21T06:24:54;3.30;;;2.87;;
505;SDS011;551;48.524;9.056;2022-08-21T06:27:20;5.30;;;3.10;;
505;SDS011;551;48.524;9.056;2022-08-21T06:29:46;3.87;;;3.60;;
505;SDS011;551;48.524;9.056;2022-08-21T06:32:12;5.07;;;3.77;;
505;SDS011;551;48.524;9.056;2022-08-21T06:34:39;4.63;;;3.27;;
505;SDS011;551;48.524;9.056;2022-08-21T06:37:05;4.07;;;3.80;;
505;SDS011;551;48.524;9.056;2022-08-21T06:39:31;5.40;;;3.30;;
505;SDS011;551;48.524;9.056;2022-08-21T06:41:57;4.27;;;3.60;;
505;SDS011;551;48.524;9.056;2022-08-21T06:44:23;3.80;;;3.60;;
505;SDS011;551;48.524;9.056;2022-08-21T06:46:49;3.57;;;3.37;;
505;SDS011;551;48.524;9.056;2022-08-21T06:49:15;3.77;;;3.47;;
505;SDS011;551;48.524;9.056;2022-08-21T06:51:41;4.40;;;4.10;;
505;SDS011;551;48.524;9.056;2022-08-21T06:54:07;2.80;;;2.60;;
505;SDS011;551;48.524;9.056;2022-08-21T06:56:33;2.90;;;2.57;;
505;SDS011;551;48.524;9.056;2022-08-21T06:59:01;2.87;;;2.67;;
505;SDS011;551;48.524;9.056;2022-08-21T07:01:27;3.30;;;2.83;;
505;SDS011;551;48.524;9.056;2022-08-21T07:03:53;3.20;;;3.00;;
505;SDS011;551;48.524;9.056;2022-08-21T07:06:19;3.37;;;3.03;;
505;SDS011;551;48.524;9.056;2022-08-21T07:08:45;3.70;;;3.50;;
505;SDS011;551;48.524;9.056;2022-08-21T07:11:16;3.40;;;3.10;;
505;SDS011;551;48.524;9.056;2022-08-21T07:13:43;3.40;;;3.10;;
505;SDS011;551;48.524;9.056;2022-08-21T07:16:09;2.97;;;2.77;;
505;SDS011;551;48.524;9.056;2022-08-21T07:18:35;3.90;;;3.20;;
505;SDS011;551;48.524;9.056;2022-08-21T07:21:02;3.80;;;3.57;;
505;SDS011;551;48.524;9.056;2022-08-21T07:23:29;4.57;;;2.77;;
505;SDS011;551;48.524;9.056;2022-08-21T07:25:56;3.90;;;3.17;;
505;SDS011;551;48.524;9.056;2022-08-21T07:28:24;2.90;;;2.63;;
505;SDS011;551;48.524;9.056;2022-08-21T07:30:50;3.70;;;3.37;;
505;SDS011;551;48.524;9.056;2022-08-21T07:33:17;3.97;;;3.23;;
505;SDS011;551;48.524;9.056;2022-08-21T07:35:43;3.27;;;3.07;;
505;SDS011;551;48.524;9.056;2022-08-21T07:38:09;5.50;;;2.97;;
505;SDS011;551;48.524;9.056;2022-08-21T07:40:35;4.67;;;3.47;;
505;SDS011;551;48.524;9.056;2022-08-21T07:43:01;3.90;;;3.33;;
505;SDS011;551;48.524;9.056;2022-08-21T07:45:27;5.40;;;3.10;;
505;SDS011;551;48.524;9.056;2022-08-21T07:47:54;3.50;;;3.07;;
505;SDS011;551;48.524;9.056;2022-08-21T07:50:20;3.70;;;3.40;;
505;SDS011;551;48.524;9.056;2022-08-21T07:52:46;5.57;;;3.07;;
505;SDS011;551;48.524;9.056;2022-08-21T07:55:14;4.43;;;2.83;;
505;SDS011;551;48.524;9.056;2022-08-21T07:57:41;4.60;;;3.20;;
505;SDS011;551;48.524;9.056;2022-08-21T08:00:08;4.67;;;3.33;;
505;SDS011;551;48.524;9.056;2022-08-21T08:02:35;4.40;;;3.47;;
505;SDS011;551;48.524;9.056;2022-08-21T08:05:02;5.00;;;2.70;;
505;SDS011;551;48.524;9.056;2022-08-21T08:07:29;3.13;;;2.93;;
505;SDS011;551;48.524;9.056;2022-08-21T08:09:55;6.63;;;3.50;;
505;SDS011;551;48.524;9.056;2022-08-21T08:12:21;2.87;;;2.57;;
505;SDS011;551;48.524;9.056;2022-08-21T08:14:48;3.30;;;3.10;;
505;SDS011;551;48.524;9.056;2022-08-21T08:17:14;4.77;;;4.37;;
505;SDS011;551;48.524;9.056;2022-08-21T08:19:40;5.07;;;4.60;;
505;SDS011;551;48.524;9.056;2022-08-21T08:22:13;6.40;;;4.23;;
505;SDS011;551;48.524;9.056;2022-08-21T08:24:39;4.60;;;4.40;;
505;SDS011;551;48.524;9.056;2022-08-21T08:27:05;4.60;;;4.30;;
505;SDS011;551;48.524;9.056;2022-08-21T08:29:31;5.70;;;4.80;;
505;SDS011;551;48.524;9.056;2022-08-21T08:31:57;5.63;;;5.03;;
505;SDS011;551;48.524;9.056;2022-08-21T08:34:23;4.90;;;4.60;;
505;SDS011;551;48.524;9.056;2022-08-21T08:36:49;5.10;;;4.70;;
505;SDS011;551;48.524;9.056;2022-08-21T08:39:15;6.23;;;5.17;;
505;SDS011;551;48.524;9.056;2022-08-21T08:41:41;6.10;;;5.30;;
505;SDS011;551;48.524;9.056;2022-08-21T08:44:08;5.73;;;5.00;;
505;SDS011;551;48.524;9.056;2022-08-21T08:46:38;6.20;;;5.50;;
505;SDS011;551;48.524;9.056;2022-08-21T08:49:17;6.73;;;5.53;;
505;SDS011;551;48.524;9.056;2022-08-21T08:51:50;5.27;;;4.87;;
505;SDS011;551;48.524;9.056;2022-08-21T08:54:18;6.10;;;5.60;;
505;SDS011;551;48.524;9.056;2022-08-21T08:56:44;6.23;;;5.60;;
505;SDS011;551;48.524;9.056;2022-08-21T08:59:14;6.33;;;5.83;;
505;SDS011;551;48.524;9.056;2022-08-21T09:01:40;6.30;;;5.90;;
505;SDS011;551;48.524;9.056;2022-08-21T09:04:06;5.30;;;4.90;;
505;SDS011;551;48.524;9.056;2022-08-21T09:06:37;5.77;;;5.40;;
505;SDS011;551;48.524;9.056;2022-08-21T09:11:43;6.10;;;5.80;;
505;SDS011;551;48.524;9.056;2022-08-21T09:16:49;6.23;;;5.73;;
505;SDS011;551;48.524;9.056;2022-08-21T09:26:57;6.27;;;5.67;;
505;SDS011;551;48.524;9.056;2022-08-21T09:29:27;7.30;;;5.60;;
505;SDS011;551;48.524;9.056;2022-08-21T09:31:56;6.10;;;5.63;;
505;SDS011;551;48.524;9.056;2022-08-21T09:34:29;8.13;;;6.03;;
505;SDS011;551;48.524;9.056;2022-08-21T09:36:56;5.93;;;5.40;;
505;SDS011;551;48.524;9.056;2022-08-21T09:39:24;7.53;;;5.63;;
505;SDS011;551;48.524;9.056;2022-08-21T09:42:07;6.40;;;5.93;;
505;SDS011;551;48.524;9.056;2022-08-21T09:44:35;7.03;;;5.67;;
505;SDS011;551;48.524;9.056;2022-08-21T09:47:04;10.67;;;6.20;;
505;SDS011;551;48.524;9.056;2022-08-21T09:49:32;6.47;;;5.97;;
505;SDS011;551;48.524;9.056;2022-08-21T09:51:59;10.00;;;6.30;;
505;SDS011;551;48.524;9.056;2022-08-21T09:54:35;7.10;;;6.40;;
505;SDS011;551;48.524;9.056;2022-08-21T09:59:53;6.80;;;6.20;;
505;SDS011;551;48.524;9.056;2022-08-21T10:04:53;6.07;;;5.50;;
505;SDS011;551;48.524;9.056;2022-08-21T10:07:20;5.60;;;5.23;;
505;SDS011;551;48.524;9.056;2022-08-21T10:09:57;6.67;;;5.63;;
505;SDS011;551;48.524;9.056;2022-08-21T10:12:25;5.73;;;5.30;;
505;SDS011;551;48.524;9.056;2022-08-21T10:19:59;5.93;;;5.47;;
505;SDS011;551;48.524;9.056;2022-08-21T10:25:08;6.50;;;5.80;;
505;SDS011;551;48.524;9.056;2022-08-21T10:30:11;7.73;;;5.50;;
505;SDS011;551;48.524;9.056;2022-08-21T10:38:01;5.10;;;4.80;;
505;SDS011;551;48.524;9.056;2022-08-21T10:40:31;5.50;;;5.10;;
505;SDS011;551;48.524;9.056;2022-08-21T10:48:33;5.33;;;4.83;;
505;SDS011;551;48.524;9.056;2022-08-21T10:51:10;5.63;;;5.30;;
505;SDS011;551;48.524;9.056;2022-08-21T10:56:26;5.17;;;4.77;;
505;SDS011;551;48.524;9.056;2022-08-21T10:59:00;5.87;;;5.20;;
505;SDS011;551;48.524;9.056;2022-08-21T11:01:38;6.57;;;6.07;;
505;SDS011;551;48.524;9.056;2022-08-21T11:04:10;5.73;;;4.93;;
505;SDS011;551;48.524;9.056;2022-08-21T11:06:37;6.90;;;5.37;;
505;SDS011;551;48.524;9.056;2022-08-21T11:09:11;5.33;;;5.00;;
505;SDS011;551;48.524;9.056;2022-08-21T11:12:20;5.37;;;4.90;;
505;SDS011;551;48.524;9.056;2022-08-21T11:17:05;5.77;;;5.37;;
505;SDS011;551;48.524;9.056;2022-08-21T11:19:43;5.43;;;5.13;;
505;SDS011;551;48.524;9.056;2022-08-21T11:22:12;5.30;;;5.00;;
505;SDS011;551;48.524;9.056;2022-08-21T11:24:44;5.60;;;5.10;;
505;SDS011;551;48.524;9.056;2022-08-21T11:29:41;5.47;;;5.00;;
505;SDS011;551;48.524;9.056;2022-08-21T11:32:31;6.13;;;5.50;;
505;SDS011;551;48.524;9.056;2022-08-21T11:37:48;5.83;;;5.40;;
505;SDS011;551;48.524;9.056;2022-08-21T11:45:39;6.17;;;5.57;;
505;SDS011;551;48.524;9.056;2022-08-21T11:48:27;8.70;;;5.33;;
505;SDS011;551;48.524;9.056;2022-08-21T11:50:55;4.87;;;4.53;;
505;SDS011;551;48.524;9.056;2022-08-21T11:53:29;4.73;;;4.43;;
505;SDS011;551;48.524;9.056;2022-08-21T11:56:01;5.13;;;4.87;;
505;SDS011;551;48.524;9.056;2022-08-21T11:58:36;5.70;;;5.30;;
505;SDS011;551;48.524;9.056;2022-08-21T12:01:07;5.80;;;5.50;;
505;SDS011;551;48.524;9.056;2022-08-21T12:03:35;6.03;;;5.53;;
505;SDS011;551;48.524;9.056;2022-08-21T12:06:06;6.07;;;5.60;;
505;SDS011;551;48.524;9.056;2022-08-21T12:08:34;5.17;;;4.77;;
505;SDS011;551;48.524;9.056;2022-08-21T12:13:28;5.57;;;5.27;;
505;SDS011;551;48.524;9.056;2022-08-21T12:16:08;6.60;;;5.33;;
505;SDS011;551;48.524;9.056;2022-08-21T12:18:34;6.00;;;5.37;;
505;SDS011;551;48.524;9.056;2022-08-21T12:21:16;5.97;;;5.40;;
505;SDS011;551;48.524;9.056;2022-08-21T12:23:48;5.30;;;5.03;;
505;SDS011;551;48.524;9.056;2022-08-21T12:26:20;5.10;;;4.90;;
505;SDS011;551;48.524;9.056;2022-08-21T12:28:48;5.40;;;5.10;;
505;SDS011;551;48.524;9.056;2022-08-21T12:31:22;5.40;;;5.10;;
505;SDS011;551;48.524;9.056;2022-08-21T12:33:53;5.50;;;5.10;;
505;SDS011;551;48.524;9.056;2022-08-21T12:36:22;5.57;;;5.17;;
505;SDS011;551;48.524;9.056;2022-08-21T12:38:51;5.37;;;5.10;;
505;SDS011;551;48.524;9.056;2022-08-21T12:41:22;5.47;;;5.17;;
505;SDS011;551;48.524;9.056;2022-08-21T12:43:51;5.93;;;5.43;;
505;SDS011;551;48.524;9.056;2022-08-21T12:46:19;5.20;;;5.00;;
505;SDS011;551;48.524;9.056;2022-08-21T12:48:48;5.50;;;5.10;;
505;SDS011;551;48.524;9.056;2022-08-21T12:51:42;5.10;;;4.80;;
505;SDS011;551;48.524;9.056;2022-08-21T12:54:02;5.70;;;5.40;;
505;SDS011;551;48.524;9.056;2022-08-21T12:56:32;6.40;;;5.87;;
505;SDS011;551;48.524;9.056;2022-08-21T12:59:06;5.87;;;5.40;;
505;SDS011;551;48.524;9.056;2022-08-21T13:01:43;5.23;;;4.83;;
505;SDS011;551;48.524;9.056;2022-08-21T13:04:12;3.37;;;3.00;;
505;SDS011;551;48.524;9.056;2022-08-21T13:06:42;5.23;;;4.80;;
505;SDS011;551;48.524;9.056;2022-08-21T13:09:14;5.90;;;3.40;;
505;SDS011;551;48.524;9.056;2022-08-21T13:11:41;5.90;;;3.47;;
505;SDS011;551;48.524;9.056;2022-08-21T13:14:20;4.00;;;3.27;;
505;SDS011;551;48.524;9.056;2022-08-21T13:16:46;4.60;;;4.30;;
505;SDS011;551;48.524;9.056;2022-08-21T13:19:17;4.00;;;3.73;;
505;SDS011;551;48.524;9.056;2022-08-21T13:21:44;4.40;;;4.00;;
505;SDS011;551;48.524;9.056;2022-08-21T13:24:22;4.40;;;4.00;;
505;SDS011;551;48.524;9.056;2022-08-21T13:26:48;4.57;;;3.30;;
505;SDS011;551;48.524;9.056;2022-08-21T13:29:16;5.00;;;3.90;;
505;SDS011;551;48.524;9.056;2022-08-21T13:31:47;6.20;;;3.87;;
505;SDS011;551;48.524;9.056;2022-08-21T13:34:14;4.30;;;3.90;;
505;SDS011;551;48.524;9.056;2022-08-21T13:36:41;6.13;;;3.87;;
505;SDS011;551;48.524;9.056;2022-08-21T13:39:08;4.07;;;3.77;;
505;SDS011;551;48.524;9.056;2022-08-21T13:41:35;4.63;;;4.13;;
505;SDS011;551;48.524;9.056;2022-08-21T13:44:21;3.67;;;3.47;;
505;SDS011;551;48.524;9.056;2022-08-21T13:46:51;3.60;;;3.30;;
505;SDS011;551;48.524;9.056;2022-08-21T13:49:18;3.67;;;3.37;;
505;SDS011;551;48.524;9.056;2022-08-21T13:51:44;3.97;;;3.57;;
505;SDS011;551;48.524;9.056;2022-08-21T13:54:22;6.20;;;3.50;;
505;SDS011;551;48.524;9.056;2022-08-21T13:56:49;3.40;;;3.10;;
505;SDS011;551;48.524;9.056;2022-08-21T13:59:27;4.80;;;3.23;;
505;SDS011;551;48.524;9.056;2022-08-21T14:01:55;4.40;;;4.03;;
505;SDS011;551;48.524;9.056;2022-08-21T14:04:35;4.17;;;3.77;;
505;SDS011;551;48.524;9.056;2022-08-21T14:07:01;3.97;;;3.37;;
505;SDS011;551;48.524;9.056;2022-08-21T14:09:32;5.93;;;3.30;;
505;SDS011;551;48.524;9.056;2022-08-21T14:12:01;6.03;;;3.80;;
505;SDS011;551;48.524;9.056;2022-08-21T14:14:28;3.67;;;3.37;;
505;SDS011;551;48.524;9.056;2022-08-21T14:16:57;2.90;;;2.70;;
505;SDS011;551;48.524;9.056;2022-08-21T14:19:24;4.53;;;3.20;;
505;SDS011;551;48.524;9.056;2022-08-21T14:21:51;4.43;;;3.20;;
505;SDS011;551;48.524;9.056;2022-08-21T14:27:09;3.43;;;3.20;;
505;SDS011;551;48.524;9.056;2022-08-21T14:29:37;3.80;;;3.50;;
505;SDS011;551;48.524;9.056;2022-08-21T14:32:12;4.30;;;3.70;;
505;SDS011;551;48.524;9.056;2022-08-21T14:34:38;3.43;;;3.10;;
505;SDS011;551;48.524;9.056;2022-08-21T14:37:04;3.53;;;3.23;;
505;SDS011;551;48.524;9.056;2022-08-21T14:39:30;3.87;;;3.47;;
505;SDS011;551;48.524;9.056;2022-08-21T14:41:57;3.30;;;3.00;;
505;SDS011;551;48.524;9.056;2022-08-21T14:44:23;3.43;;;3.13;;
505;SDS011;551;48.524;9.056;2022-08-21T14:46:49;3.60;;;3.20;;
505;SDS011;551;48.524;9.056;2022-08-21T14:49:15;4.23;;;3.77;;
505;SDS011;551;48.524;9.056;2022-08-21T14:51:41;3.43;;;3.13;;
505;SDS011;551;48.524;9.056;2022-08-21T14:54:07;5.27;;;3.27;;
505;SDS011;551;48.524;9.056;2022-08-21T14:56:33;3.57;;;3.20;;
505;SDS011;551;48.524;9.056;2022-08-21T14:59:04;3.37;;;3.10;;
505;SDS011;551;48.524;9.056;2022-08-21T15:01:32;3.40;;;2.77;;
505;SDS011;551;48.524;9.056;2022-08-21T15:03:58;3.80;;;3.17;;
505;SDS011;551;48.524;9.056;2022-08-21T15:06:24;4.17;;;3.17;;
505;SDS011;551;48.524;9.056;2022-08-21T15:08:50;3.87;;;3.57;;
505;SDS011;551;48.524;9.056;2022-08-21T15:11:17;3.47;;;3.17;;
505;SDS011;551;48.524;9.056;2022-08-21T15:13:43;4.30;;;3.90;;
505;SDS011;551;48.524;9.056;2022-08-21T15:16:10;3.67;;;3.37;;
505;SDS011;551;48.524;9.056;2022-08-21T15:18:36;3.87;;;3.10;;
505;SDS011;551;48.524;9.056;2022-08-21T15:21:02;3.90;;;3.60;;
505;SDS011;551;48.524;9.056;2022-08-21T15:23:28;4.30;;;3.90;;
505;SDS011;551;48.524;9.056;2022-08-21T15:25:54;3.90;;;3.50;;
505;SDS011;551;48.524;9.056;2022-08-21T15:28:22;3.63;;;3.33;;
505;SDS011;551;48.524;9.056;2022-08-21T15:30:49;5.13;;;3.80;;
505;SDS011;551;48.524;9.056;2022-08-21T15:33:15;4.03;;;3.73;;
505;SDS011;551;48.524;9.056;2022-08-21T15:35:41;4.40;;;3.10;;
505;SDS011;551;48.524;9.056;2022-08-21T15:38:07;3.70;;;3.37;;
505;SDS011;551;48.524;9.056;2022-08-21T15:40:34;4.63;;;3.33;;
505;SDS011;551;48.524;9.056;2022-08-21T15:43:01;4.33;;;3.43;;
505;SDS011;551;48.524;9.056;2022-08-21T15:45:27;3.17;;;2.83;;
505;SDS011;551;48.524;9.056;2022-08-21T15:47:53;5.00;;;3.17;;
505;SDS011;551;48.524;9.056;2022-08-21T15:50:20;3.50;;;3.10;;
505;SDS011;551;48.524;9.056;2022-08-21T15:52:46;3.50;;;3.20;;
505;SDS011;551;48.524;9.056;2022-08-21T15:55:12;3.70;;;3.40;;
505;SDS011;551;48.524;9.056;2022-08-21T15:57:38;5.33;;;3.60;;
505;SDS011;551;48.524;9.056;2022-08-21T16:00:15;8.63;;;3.87;;
505;SDS011;551;48.524;9.056;2022-08-21T16:02:42;3.90;;;3.43;;
505;SDS011;551;48.524;9.056;2022-08-21T16:05:09;3.47;;;3.17;;
505;SDS011;551;48.524;9.056;2022-08-21T16:07:36;3.27;;;2.97;;
505;SDS011;551;48.524;9.056;2022-08-21T16:10:03;4.13;;;3.73;;
505;SDS011;551;48.524;9.056;2022-08-21T16:12:29;3.80;;;3.40;;
505;SDS011;551;48.524;9.056;2022-08-21T16:14:57;2.77;;;2.57;;
505;SDS011;551;48.524;9.056;2022-08-21T16:17:25;3.00;;;2.70;;
505;SDS011;551;48.524;9.056;2022-08-21T16:19:53;3.27;;;2.90;;
505;SDS011;551;48.524;9.056;2022-08-21T16:22:20;6.30;;;3.80;;
505;SDS011;551;48.524;9.056;2022-08-21T16:24:46;4.03;;;3.73;;
505;SDS011;551;48.524;9.056;2022-08-21T16:27:12;3.20;;;2.90;;
505;SDS011;551;48.524;9.056;2022-08-21T16:29:39;5.77;;;3.20;;
505;SDS011;551;48.524;9.056;2022-08-21T16:32:05;4.23;;;3.00;;
505;SDS011;551;48.524;9.056;2022-08-21T16:34:31;3.37;;;2.37;;
505;SDS011;551;48.524;9.056;2022-08-21T16:36:58;3.73;;;3.10;;
505;SDS011;551;48.524;9.056;2022-08-21T16:39:24;4.10;;;3.20;;
505;SDS011;551;48.524;9.056;2022-08-21T16:41:50;4.30;;;3.30;;
505;SDS011;551;48.524;9.056;2022-08-21T16:44:16;3.47;;;3.17;;
505;SDS011;551;48.524;9.056;2022-08-21T16:46:43;4.73;;;2.90;;
505;SDS011;551;48.524;9.056;2022-08-21T16:49:09;6.87;;;3.13;;